Alger, Ohio
Current Conditions -  °F | °C
As of 1:53 PM on Monday 20 Oct 2014 (Local Time) from KAOH Reporting Station
Light Rain Light Rain  
Wind Chill: 12°   Ceiling: 6000
Heat Index: 12°   Visibility: 4mi
Dew Point:   Wind: 9mph
Humidity: 86%   Direction: 190°S
Pressure: 29.84"   Gusts: NA
Location:  40.71°N, 83.84°W
Report Text: KAOH 201753Z AUTO 19008KT 4SM -RA BR OVC060 12/09 A2984 RMK AO2 LTG DSNT W RAB1655 SLP107 P0017 60020 T01170094 10133 20100 58017
Loading
Personal Weather Stations






























Interactive Weather Map
Tropical Storm Tracking
New forecast layout! Learn more

10-Day Weather Forecast

Advertisements
Track Severe Weather on mobile